sensor_id;sensor_type;location;lat;lon;timestamp;temperature;humidity
19039;DHT22;9652;49.014;12.052;2024-03-02T00:00:50;11.10;73.10
19039;DHT22;9652;49.014;12.052;2024-03-02T00:03:19;11.20;73.40
19039;DHT22;9652;49.014;12.052;2024-03-02T00:05:49;11.10;73.20
19039;DHT22;9652;49.014;12.052;2024-03-02T00:08:23;11.10;73.40
19039;DHT22;9652;49.014;12.052;2024-03-02T00:10:53;11.10;73.60
19039;DHT22;9652;49.014;12.052;2024-03-02T00:13:24;11.10;73.40
19039;DHT22;9652;49.014;12.052;2024-03-02T00:15:52;11.10;73.50
19039;DHT22;9652;49.014;12.052;2024-03-02T00:18:25;11.10;73.60
19039;DHT22;9652;49.014;12.052;2024-03-02T00:20:54;11.10;73.70
19039;DHT22;9652;49.014;12.052;2024-03-02T00:23:24;11.10;73.60
19039;DHT22;9652;49.014;12.052;2024-03-02T00:25:55;11.00;73.60
19039;DHT22;9652;49.014;12.052;2024-03-02T00:28:24;11.10;73.60
19039;DHT22;9652;49.014;12.052;2024-03-02T00:30:58;11.00;73.60
19039;DHT22;9652;49.014;12.052;2024-03-02T00:33:31;11.00;73.70
19039;DHT22;9652;49.014;12.052;2024-03-02T00:36:01;11.00;73.70
19039;DHT22;9652;49.014;12.052;2024-03-02T00:38:30;11.00;73.70
19039;DHT22;9652;49.014;12.052;2024-03-02T00:40:58;11.00;73.80
19039;DHT22;9652;49.014;12.052;2024-03-02T00:44:00;11.00;73.80
19039;DHT22;9652;49.014;12.052;2024-03-02T00:46:30;11.00;74.40
19039;DHT22;9652;49.014;12.052;2024-03-02T00:49:00;11.00;73.70
19039;DHT22;9652;49.014;12.052;2024-03-02T00:51:31;11.00;73.80
19039;DHT22;9652;49.014;12.052;2024-03-02T00:54:01;10.90;73.70
19039;DHT22;9652;49.014;12.052;2024-03-02T00:56:31;11.00;74.00
19039;DHT22;9652;49.014;12.052;2024-03-02T00:58:59;10.90;73.90
19039;DHT22;9652;49.014;12.052;2024-03-02T01:01:26;10.90;73.90
19039;DHT22;9652;49.014;12.052;2024-03-02T01:03:53;10.90;73.90
19039;DHT22;9652;49.014;12.052;2024-03-02T01:06:21;11.00;74.10
19039;DHT22;9652;49.014;12.052;2024-03-02T01:08:48;11.00;74.20
19039;DHT22;9652;49.014;12.052;2024-03-02T01:11:18;10.90;74.20
19039;DHT22;9652;49.014;12.052;2024-03-02T01:13:47;10.90;74.30
19039;DHT22;9652;49.014;12.052;2024-03-02T01:16:15;10.90;74.30
19039;DHT22;9652;49.014;12.052;2024-03-02T01:18:42;11.00;74.30
19039;DHT22;9652;49.014;12.052;2024-03-02T01:21:09;11.00;74.30
19039;DHT22;9652;49.014;12.052;2024-03-02T01:23:36;10.90;74.20
19039;DHT22;9652;49.014;12.052;2024-03-02T01:26:03;11.00;74.40
19039;DHT22;9652;49.014;12.052;2024-03-02T01:28:32;11.00;74.60
19039;DHT22;9652;49.014;12.052;2024-03-02T01:30:59;10.90;74.80
19039;DHT22;9652;49.014;12.052;2024-03-02T01:33:27;10.90;74.90
19039;DHT22;9652;49.014;12.052;2024-03-02T01:35:54;10.90;75.00
19039;DHT22;9652;49.014;12.052;2024-03-02T01:38:21;10.90;74.90
19039;DHT22;9652;49.014;12.052;2024-03-02T01:40:48;10.90;75.00
19039;DHT22;9652;49.014;12.052;2024-03-02T01:43:15;11.00;75.10
19039;DHT22;9652;49.014;12.052;2024-03-02T01:45:44;10.90;75.00
19039;DHT22;9652;49.014;12.052;2024-03-02T01:48:11;11.10;75.20
19039;DHT22;9652;49.014;12.052;2024-03-02T01:50:39;11.00;75.00
19039;DHT22;9652;49.014;12.052;2024-03-02T01:53:06;10.90;75.00
19039;DHT22;9652;49.014;12.052;2024-03-02T01:55:35;10.90;74.80
19039;DHT22;9652;49.014;12.052;2024-03-02T01:58:03;10.90;74.80
19039;DHT22;9652;49.014;12.052;2024-03-02T02:00:30;10.90;74.80
19039;DHT22;9652;49.014;12.052;2024-03-02T02:02:59;10.90;74.70
19039;DHT22;9652;49.014;12.052;2024-03-02T02:05:26;10.90;74.80
19039;DHT22;9652;49.014;12.052;2024-03-02T02:07:53;10.90;74.90
19039;DHT22;9652;49.014;12.052;2024-03-02T02:10:20;10.90;75.00
19039;DHT22;9652;49.014;12.052;2024-03-02T02:12:47;10.80;75.00
19039;DHT22;9652;49.014;12.052;2024-03-02T02:15:25;10.80;75.10
19039;DHT22;9652;49.014;12.052;2024-03-02T02:17:53;10.90;75.70
19039;DHT22;9652;49.014;12.052;2024-03-02T02:20:22;10.90;75.40
19039;DHT22;9652;49.014;12.052;2024-03-02T02:22:58;10.90;75.60
19039;DHT22;9652;49.014;12.052;2024-03-02T02:25:26;10.90;76.00
19039;DHT22;9652;49.014;12.052;2024-03-02T02:27:54;10.80;75.80
19039;DHT22;9652;49.014;12.052;2024-03-02T02:30:24;10.90;75.90
19039;DHT22;9652;49.014;12.052;2024-03-02T02:32:53;11.00;76.10
19039;DHT22;9652;49.014;12.052;2024-03-02T02:35:20;11.10;77.00
19039;DHT22;9652;49.014;12.052;2024-03-02T02:37:48;11.00;76.10
19039;DHT22;9652;49.014;12.052;2024-03-02T02:40:18;11.00;76.10
19039;DHT22;9652;49.014;12.052;2024-03-02T02:42:45;11.10;76.10
19039;DHT22;9652;49.014;12.052;2024-03-02T02:45:13;11.00;76.00
19039;DHT22;9652;49.014;12.052;2024-03-02T02:47:41;11.10;76.00
19039;DHT22;9652;49.014;12.052;2024-03-02T02:50:09;11.00;75.90
19039;DHT22;9652;49.014;12.052;2024-03-02T02:52:38;11.00;76.00
19039;DHT22;9652;49.014;12.052;2024-03-02T02:55:07;11.00;76.00
19039;DHT22;9652;49.014;12.052;2024-03-02T02:57:38;11.00;76.00
19039;DHT22;9652;49.014;12.052;2024-03-02T03:00:08;11.00;76.20
19039;DHT22;9652;49.014;12.052;2024-03-02T03:02:40;11.00;76.10
19039;DHT22;9652;49.014;12.052;2024-03-02T03:05:09;11.00;76.10
19039;DHT22;9652;49.014;12.052;2024-03-02T03:07:37;11.00;76.20
19039;DHT22;9652;49.014;12.052;2024-03-02T03:10:07;11.00;76.10
19039;DHT22;9652;49.014;12.052;2024-03-02T03:12:36;11.00;76.10
19039;DHT22;9652;49.014;12.052;2024-03-02T03:15:04;11.00;76.10
19039;DHT22;9652;49.014;12.052;2024-03-02T03:17:32;11.00;76.00
19039;DHT22;9652;49.014;12.052;2024-03-02T03:19:59;11.00;76.00
19039;DHT22;9652;49.014;12.052;2024-03-02T03:22:28;11.00;76.00
19039;DHT22;9652;49.014;12.052;2024-03-02T03:24:55;10.90;76.00
19039;DHT22;9652;49.014;12.052;2024-03-02T03:27:22;10.90;76.00
19039;DHT22;9652;49.014;12.052;2024-03-02T03:29:50;10.90;75.90
19039;DHT22;9652;49.014;12.052;2024-03-02T03:32:17;10.90;76.00
19039;DHT22;9652;49.014;12.052;2024-03-02T03:34:45;10.90;76.10
19039;DHT22;9652;49.014;12.052;2024-03-02T03:37:13;10.90;76.10
19039;DHT22;9652;49.014;12.052;2024-03-02T03:39:41;10.90;76.10
19039;DHT22;9652;49.014;12.052;2024-03-02T03:42:08;10.90;76.10
19039;DHT22;9652;49.014;12.052;2024-03-02T03:44:35;10.90;76.10
19039;DHT22;9652;49.014;12.052;2024-03-02T03:47:03;10.90;76.10
19039;DHT22;9652;49.014;12.052;2024-03-02T03:49:31;10.90;76.30
19039;DHT22;9652;49.014;12.052;2024-03-02T03:51:58;10.80;76.20
19039;DHT22;9652;49.014;12.052;2024-03-02T03:54:26;10.90;76.30
19039;DHT22;9652;49.014;12.052;2024-03-02T03:56:53;10.90;76.30
19039;DHT22;9652;49.014;12.052;2024-03-02T03:59:20;10.90;76.30
19039;DHT22;9652;49.014;12.052;2024-03-02T04:01:47;10.80;76.20
19039;DHT22;9652;49.014;12.052;2024-03-02T04:04:15;10.80;76.10
19039;DHT22;9652;49.014;12.052;2024-03-02T04:06:42;10.80;76.20
19039;DHT22;9652;49.014;12.052;2024-03-02T04:09:10;10.90;76.20
19039;DHT22;9652;49.014;12.052;2024-03-02T04:11:37;10.80;76.20
19039;DHT22;9652;49.014;12.052;2024-03-02T04:14:04;10.80;76.20
19039;DHT22;9652;49.014;12.052;2024-03-02T04:16:31;10.80;76.30
19039;DHT22;9652;49.014;12.052;2024-03-02T04:18:58;10.80;76.30
19039;DHT22;9652;49.014;12.052;2024-03-02T04:21:27;10.80;76.50
19039;DHT22;9652;49.014;12.052;2024-03-02T04:23:54;10.80;76.60
19039;DHT22;9652;49.014;12.052;2024-03-02T04:26:24;10.80;76.70
19039;DHT22;9652;49.014;12.052;2024-03-02T04:28:51;10.80;76.80
19039;DHT22;9652;49.014;12.052;2024-03-02T04:31:18;10.80;76.70
19039;DHT22;9652;49.014;12.052;2024-03-02T04:33:45;10.90;76.80
19039;DHT22;9652;49.014;12.052;2024-03-02T04:36:12;10.80;76.80
19039;DHT22;9652;49.014;12.052;2024-03-02T04:38:41;10.90;76.80
19039;DHT22;9652;49.014;12.052;2024-03-02T04:41:08;10.90;77.00
19039;DHT22;9652;49.014;12.052;2024-03-02T04:43:35;10.90;77.00
19039;DHT22;9652;49.014;12.052;2024-03-02T04:46:02;10.90;76.90
19039;DHT22;9652;49.014;12.052;2024-03-02T04:48:30;10.90;77.00
19039;DHT22;9652;49.014;12.052;2024-03-02T04:50:57;10.90;77.00
19039;DHT22;9652;49.014;12.052;2024-03-02T04:53:24;10.90;77.00
19039;DHT22;9652;49.014;12.052;2024-03-02T04:55:53;10.90;77.10
19039;DHT22;9652;49.014;12.052;2024-03-02T04:58:53;11.00;77.20
19039;DHT22;9652;49.014;12.052;2024-03-02T05:01:20;11.00;77.10
19039;DHT22;9652;49.014;12.052;2024-03-02T05:03:47;11.00;77.00
19039;DHT22;9652;49.014;12.052;2024-03-02T05:06:14;11.00;77.20
19039;DHT22;9652;49.014;12.052;2024-03-02T05:08:41;11.00;77.20
19039;DHT22;9652;49.014;12.052;2024-03-02T05:11:11;11.00;77.20
19039;DHT22;9652;49.014;12.052;2024-03-02T05:13:56;11.00;77.20
19039;DHT22;9652;49.014;12.052;2024-03-02T05:16:23;11.10;77.20
19039;DHT22;9652;49.014;12.052;2024-03-02T05:18:50;11.00;77.00
19039;DHT22;9652;49.014;12.052;2024-03-02T05:21:17;11.10;77.00
19039;DHT22;9652;49.014;12.052;2024-03-02T05:23:44;11.00;76.80
19039;DHT22;9652;49.014;12.052;2024-03-02T05:26:13;11.10;77.80
19039;DHT22;9652;49.014;12.052;2024-03-02T05:28:40;11.00;77.10
19039;DHT22;9652;49.014;12.052;2024-03-02T05:31:10;11.10;77.10
19039;DHT22;9652;49.014;12.052;2024-03-02T05:33:37;11.00;77.20
19039;DHT22;9652;49.014;12.052;2024-03-02T05:36:05;11.10;77.10
19039;DHT22;9652;49.014;12.052;2024-03-02T05:38:32;11.10;77.00
19039;DHT22;9652;49.014;12.052;2024-03-02T05:41:01;11.10;77.00
19039;DHT22;9652;49.014;12.052;2024-03-02T05:43:30;11.10;77.00
19039;DHT22;9652;49.014;12.052;2024-03-02T05:45:57;11.10;77.00
19039;DHT22;9652;49.014;12.052;2024-03-02T05:48:24;11.10;76.90
19039;DHT22;9652;49.014;12.052;2024-03-02T05:50:51;11.10;77.00
19039;DHT22;9652;49.014;12.052;2024-03-02T05:53:18;11.10;77.00
19039;DHT22;9652;49.014;12.052;2024-03-02T05:55:45;11.10;77.00
19039;DHT22;9652;49.014;12.052;2024-03-02T05:58:12;11.10;77.10
19039;DHT22;9652;49.014;12.052;2024-03-02T06:00:54;11.20;77.10
19039;DHT22;9652;49.014;12.052;2024-03-02T06:03:22;11.10;77.10
19039;DHT22;9652;49.014;12.052;2024-03-02T06:05:49;11.10;77.20
19039;DHT22;9652;49.014;12.052;2024-03-02T06:08:17;11.10;77.20
19039;DHT22;9652;49.014;12.052;2024-03-02T06:10:44;11.10;77.20
19039;DHT22;9652;49.014;12.052;2024-03-02T06:13:11;11.10;77.20
19039;DHT22;9652;49.014;12.052;2024-03-02T06:15:38;11.10;77.20
19039;DHT22;9652;49.014;12.052;2024-03-02T06:18:07;11.10;77.20
19039;DHT22;9652;49.014;12.052;2024-03-02T06:20:34;11.20;77.30
19039;DHT22;9652;49.014;12.052;2024-03-02T06:23:02;11.10;77.30
19039;DHT22;9652;49.014;12.052;2024-03-02T06:25:30;11.20;77.40
19039;DHT22;9652;49.014;12.052;2024-03-02T06:27:58;11.20;77.40
19039;DHT22;9652;49.014;12.052;2024-03-02T06:30:25;11.20;77.40
19039;DHT22;9652;49.014;12.052;2024-03-02T06:32:52;11.20;77.40
19039;DHT22;9652;49.014;12.052;2024-03-02T06:35:21;11.20;77.30
19039;DHT22;9652;49.014;12.052;2024-03-02T06:37:48;11.20;77.30
19039;DHT22;9652;49.014;12.052;2024-03-02T06:40:15;11.30;77.20
19039;DHT22;9652;49.014;12.052;2024-03-02T06:42:42;11.30;77.20
19039;DHT22;9652;49.014;12.052;2024-03-02T06:45:09;11.30;77.30
19039;DHT22;9652;49.014;12.052;2024-03-02T06:47:37;11.30;77.40
19039;DHT22;9652;49.014;12.052;2024-03-02T06:50:04;11.30;77.50
19039;DHT22;9652;49.014;12.052;2024-03-02T06:52:34;11.40;77.60
19039;DHT22;9652;49.014;12.052;2024-03-02T06:55:01;11.40;77.60
19039;DHT22;9652;49.014;12.052;2024-03-02T06:57:29;11.40;77.60
19039;DHT22;9652;49.014;12.052;2024-03-02T06:59:56;11.50;77.60
19039;DHT22;9652;49.014;12.052;2024-03-02T07:02:24;11.50;77.30
19039;DHT22;9652;49.014;12.052;2024-03-02T07:04:52;11.50;77.00
19039;DHT22;9652;49.014;12.052;2024-03-02T07:07:19;11.60;77.10
19039;DHT22;9652;49.014;12.052;2024-03-02T07:09:48;11.60;77.20
19039;DHT22;9652;49.014;12.052;2024-03-02T07:12:15;11.60;77.20
19039;DHT22;9652;49.014;12.052;2024-03-02T07:14:42;11.60;77.40
19039;DHT22;9652;49.014;12.052;2024-03-02T07:17:44;11.70;77.50
19039;DHT22;9652;49.014;12.052;2024-03-02T07:20:11;11.70;77.10
19039;DHT22;9652;49.014;12.052;2024-03-02T07:22:38;11.70;77.00
19039;DHT22;9652;49.014;12.052;2024-03-02T07:25:07;11.80;77.10
19039;DHT22;9652;49.014;12.052;2024-03-02T07:27:34;11.80;77.20
19039;DHT22;9652;49.014;12.052;2024-03-02T07:30:02;11.90;77.20
19039;DHT22;9652;49.014;12.052;2024-03-02T07:32:29;11.90;77.20
19039;DHT22;9652;49.014;12.052;2024-03-02T07:34:56;11.90;77.20
19039;DHT22;9652;49.014;12.052;2024-03-02T07:37:23;12.00;77.10
19039;DHT22;9652;49.014;12.052;2024-03-02T07:39:51;12.00;76.70
19039;DHT22;9652;49.014;12.052;2024-03-02T07:42:19;12.00;76.70
19039;DHT22;9652;49.014;12.052;2024-03-02T07:44:46;12.10;77.50
19039;DHT22;9652;49.014;12.052;2024-03-02T07:47:13;12.10;76.50
19039;DHT22;9652;49.014;12.052;2024-03-02T07:49:41;12.10;76.60
19039;DHT22;9652;49.014;12.052;2024-03-02T07:52:08;12.10;76.50
19039;DHT22;9652;49.014;12.052;2024-03-02T07:54:35;12.10;76.50
19039;DHT22;9652;49.014;12.052;2024-03-02T07:57:02;12.10;76.40
19039;DHT22;9652;49.014;12.052;2024-03-02T07:59:31;12.20;76.50
19039;DHT22;9652;49.014;12.052;2024-03-02T08:01:58;12.20;76.80
19039;DHT22;9652;49.014;12.052;2024-03-02T08:04:26;12.20;77.00
19039;DHT22;9652;49.014;12.052;2024-03-02T08:06:53;12.30;77.00
19039;DHT22;9652;49.014;12.052;2024-03-02T08:09:21;12.30;76.80
19039;DHT22;9652;49.014;12.052;2024-03-02T08:11:48;12.30;76.60
19039;DHT22;9652;49.014;12.052;2024-03-02T08:14:15;12.40;76.50
19039;DHT22;9652;49.014;12.052;2024-03-02T08:16:43;12.40;76.30
19039;DHT22;9652;49.014;12.052;2024-03-02T08:19:12;12.40;75.80
19039;DHT22;9652;49.014;12.052;2024-03-02T08:21:39;12.50;75.60
19039;DHT22;9652;49.014;12.052;2024-03-02T08:24:07;12.50;75.50
19039;DHT22;9652;49.014;12.052;2024-03-02T08:26:34;12.40;75.60
19039;DHT22;9652;49.014;12.052;2024-03-02T08:29:01;12.50;75.80
19039;DHT22;9652;49.014;12.052;2024-03-02T08:31:29;12.50;76.00
19039;DHT22;9652;49.014;12.052;2024-03-02T08:33:57;12.50;76.30
19039;DHT22;9652;49.014;12.052;2024-03-02T08:36:25;12.50;76.50
19039;DHT22;9652;49.014;12.052;2024-03-02T08:38:52;12.60;76.60
19039;DHT22;9652;49.014;12.052;2024-03-02T08:41:19;12.70;76.60
19039;DHT22;9652;49.014;12.052;2024-03-02T08:43:46;12.70;76.60
19039;DHT22;9652;49.014;12.052;2024-03-02T08:46:14;12.80;76.70
19039;DHT22;9652;49.014;12.052;2024-03-02T08:48:41;12.80;76.50
19039;DHT22;9652;49.014;12.052;2024-03-02T08:51:09;12.90;76.60
19039;DHT22;9652;49.014;12.052;2024-03-02T08:53:36;13.00;76.60
19039;DHT22;9652;49.014;12.052;2024-03-02T08:56:04;13.10;76.60
19039;DHT22;9652;49.014;12.052;2024-03-02T08:58:32;13.10;76.60
19039;DHT22;9652;49.014;12.052;2024-03-02T09:00:59;13.20;76.40
19039;DHT22;9652;49.014;12.052;2024-03-02T09:03:26;13.30;76.20
19039;DHT22;9652;49.014;12.052;2024-03-02T09:05:53;13.40;76.20
19039;DHT22;9652;49.014;12.052;2024-03-02T09:08:22;13.40;76.10
19039;DHT22;9652;49.014;12.052;2024-03-02T09:10:49;13.50;76.20
19039;DHT22;9652;49.014;12.052;2024-03-02T09:13:16;13.60;76.40
19039;DHT22;9652;49.014;12.052;2024-03-02T09:15:44;13.70;76.30
19039;DHT22;9652;49.014;12.052;2024-03-02T09:18:11;13.80;76.10
19039;DHT22;9652;49.014;12.052;2024-03-02T09:20:38;13.90;76.30
19039;DHT22;9652;49.014;12.052;2024-03-02T09:23:05;13.90;76.00
19039;DHT22;9652;49.014;12.052;2024-03-02T09:25:34;14.10;75.80
19039;DHT22;9652;49.014;12.052;2024-03-02T09:28:02;14.10;75.50
19039;DHT22;9652;49.014;12.052;2024-03-02T09:30:29;14.20;75.10
19039;DHT22;9652;49.014;12.052;2024-03-02T09:32:56;14.30;75.00
19039;DHT22;9652;49.014;12.052;2024-03-02T09:35:24;14.40;75.00
19039;DHT22;9652;49.014;12.052;2024-03-02T09:37:51;14.40;74.90
19039;DHT22;9652;49.014;12.052;2024-03-02T09:40:21;14.40;75.00
19039;DHT22;9652;49.014;12.052;2024-03-02T09:42:50;14.50;74.90
19039;DHT22;9652;49.014;12.052;2024-03-02T09:45:22;14.60;74.70
19039;DHT22;9652;49.014;12.052;2024-03-02T09:47:50;14.60;74.50
19039;DHT22;9652;49.014;12.052;2024-03-02T09:50:17;14.70;74.40
19039;DHT22;9652;49.014;12.052;2024-03-02T09:52:48;14.70;74.20
19039;DHT22;9652;49.014;12.052;2024-03-02T09:55:16;14.80;74.10
19039;DHT22;9652;49.014;12.052;2024-03-02T09:57:45;14.80;74.20
19039;DHT22;9652;49.014;12.052;2024-03-02T10:00:16;15.10;74.40
19039;DHT22;9652;49.014;12.052;2024-03-02T10:02:43;15.00;74.40
19039;DHT22;9652;49.014;12.052;2024-03-02T10:05:11;15.10;74.40
19039;DHT22;9652;49.014;12.052;2024-03-02T10:07:38;15.20;74.00
19039;DHT22;9652;49.014;12.052;2024-03-02T10:10:15;15.30;73.70
19039;DHT22;9652;49.014;12.052;2024-03-02T10:12:43;15.30;72.60
19039;DHT22;9652;49.014;12.052;2024-03-02T10:15:10;15.30;73.00
19039;DHT22;9652;49.014;12.052;2024-03-02T10:17:38;15.40;72.70
19039;DHT22;9652;49.014;12.052;2024-03-02T10:20:21;15.40;72.60
19039;DHT22;9652;49.014;12.052;2024-03-02T10:22:50;15.40;71.70
19039;DHT22;9652;49.014;12.052;2024-03-02T10:25:29;15.40;72.10
19039;DHT22;9652;49.014;12.052;2024-03-02T10:27:58;15.40;71.10
19039;DHT22;9652;49.014;12.052;2024-03-02T10:30:26;15.40;71.60
19039;DHT22;9652;49.014;12.052;2024-03-02T10:32:55;15.40;71.50
19039;DHT22;9652;49.014;12.052;2024-03-02T10:35:23;15.40;71.30
19039;DHT22;9652;49.014;12.052;2024-03-02T10:37:52;15.30;71.50
19039;DHT22;9652;49.014;12.052;2024-03-02T10:40:22;15.30;71.90
19039;DHT22;9652;49.014;12.052;2024-03-02T10:42:50;15.30;71.90
19039;DHT22;9652;49.014;12.052;2024-03-02T10:45:19;15.40;72.30
19039;DHT22;9652;49.014;12.052;2024-03-02T10:47:48;15.50;72.50
19039;DHT22;9652;49.014;12.052;2024-03-02T10:50:17;15.50;72.20
19039;DHT22;9652;49.014;12.052;2024-03-02T10:52:45;15.70;71.90
19039;DHT22;9652;49.014;12.052;2024-03-02T10:55:12;15.70;71.70
19039;DHT22;9652;49.014;12.052;2024-03-02T10:57:50;15.80;71.60
19039;DHT22;9652;49.014;12.052;2024-03-02T11:00:19;15.80;70.40
19039;DHT22;9652;49.014;12.052;2024-03-02T11:02:51;15.80;70.90
19039;DHT22;9652;49.014;12.052;2024-03-02T11:05:27;15.90;70.50
19039;DHT22;9652;49.014;12.052;2024-03-02T11:08:02;15.90;70.10
19039;DHT22;9652;49.014;12.052;2024-03-02T11:10:35;16.00;70.20
19039;DHT22;9652;49.014;12.052;2024-03-02T11:13:08;16.00;70.20
19039;DHT22;9652;49.014;12.052;2024-03-02T11:15:36;16.10;70.10
19039;DHT22;9652;49.014;12.052;2024-03-02T11:18:04;16.10;70.20
19039;DHT22;9652;49.014;12.052;2024-03-02T11:20:36;16.20;70.30
19039;DHT22;9652;49.014;12.052;2024-03-02T11:23:06;16.30;70.10
19039;DHT22;9652;49.014;12.052;2024-03-02T11:25:33;16.30;70.10
19039;DHT22;9652;49.014;12.052;2024-03-02T11:28:02;16.40;70.00
19039;DHT22;9652;49.014;12.052;2024-03-02T11:30:49;16.40;69.60
19039;DHT22;9652;49.014;12.052;2024-03-02T11:33:26;16.40;68.30
19039;DHT22;9652;49.014;12.052;2024-03-02T11:35:56;16.50;68.70
19039;DHT22;9652;49.014;12.052;2024-03-02T11:38:29;16.60;69.10
19039;DHT22;9652;49.014;12.052;2024-03-02T11:40:59;16.60;68.50
19039;DHT22;9652;49.014;12.052;2024-03-02T11:43:28;16.60;68.30
19039;DHT22;9652;49.014;12.052;2024-03-02T11:45:59;16.60;68.30
19039;DHT22;9652;49.014;12.052;2024-03-02T11:48:30;16.70;67.90
19039;DHT22;9652;49.014;12.052;2024-03-02T11:51:00;16.60;68.20
19039;DHT22;9652;49.014;12.052;2024-03-02T11:53:28;16.60;68.10
19039;DHT22;9652;49.014;12.052;2024-03-02T11:55:58;16.60;68.10
19039;DHT22;9652;49.014;12.052;2024-03-02T11:58:27;16.70;68.10
19039;DHT22;9652;49.014;12.052;2024-03-02T12:00:55;16.70;68.10
19039;DHT22;9652;49.014;12.052;2024-03-02T12:03:24;16.70;67.90
19039;DHT22;9652;49.014;12.052;2024-03-02T12:05:52;16.70;67.80
19039;DHT22;9652;49.014;12.052;2024-03-02T12:08:22;16.70;67.90
19039;DHT22;9652;49.014;12.052;2024-03-02T12:10:59;16.70;67.60
19039;DHT22;9652;49.014;12.052;2024-03-02T12:13:27;16.80;66.70
19039;DHT22;9652;49.014;12.052;2024-03-02T12:15:55;16.80;67.40
19039;DHT22;9652;49.014;12.052;2024-03-02T12:18:23;16.80;66.90
19039;DHT22;9652;49.014;12.052;2024-03-02T12:20:51;16.80;66.70
19039;DHT22;9652;49.014;12.052;2024-03-02T12:23:23;16.80;66.90
19039;DHT22;9652;49.014;12.052;2024-03-02T12:25:50;16.80;67.10
19039;DHT22;9652;49.014;12.052;2024-03-02T12:28:18;16.90;67.60
19039;DHT22;9652;49.014;12.052;2024-03-02T12:30:46;16.90;67.30
19039;DHT22;9652;49.014;12.052;2024-03-02T12:33:14;17.00;66.80
19039;DHT22;9652;49.014;12.052;2024-03-02T12:35:41;17.00;66.00
19039;DHT22;9652;49.014;12.052;2024-03-02T12:38:09;17.00;65.30
19039;DHT22;9652;49.014;12.052;2024-03-02T12:40:38;17.00;65.00
19039;DHT22;9652;49.014;12.052;2024-03-02T12:43:06;16.90;65.40
19039;DHT22;9652;49.014;12.052;2024-03-02T12:45:33;16.90;66.00
19039;DHT22;9652;49.014;12.052;2024-03-02T12:48:01;16.80;66.40
19039;DHT22;9652;49.014;12.052;2024-03-02T12:50:28;17.00;66.80
19039;DHT22;9652;49.014;12.052;2024-03-02T12:52:56;17.00;66.80
19039;DHT22;9652;49.014;12.052;2024-03-02T12:55:23;17.10;67.00
19039;DHT22;9652;49.014;12.052;2024-03-02T12:57:53;17.20;67.00
19039;DHT22;9652;49.014;12.052;2024-03-02T13:00:21;17.30;66.50
19039;DHT22;9652;49.014;12.052;2024-03-02T13:02:49;17.30;66.30
19039;DHT22;9652;49.014;12.052;2024-03-02T13:05:17;17.40;66.30
19039;DHT22;9652;49.014;12.052;2024-03-02T13:07:46;17.50;66.30
19039;DHT22;9652;49.014;12.052;2024-03-02T13:10:13;17.60;66.10
19039;DHT22;9652;49.014;12.052;2024-03-02T13:12:41;17.70;65.50
19039;DHT22;9652;49.014;12.052;2024-03-02T13:15:09;17.70;65.50
19039;DHT22;9652;49.014;12.052;2024-03-02T13:17:37;17.90;65.30
19039;DHT22;9652;49.014;12.052;2024-03-02T13:20:06;17.90;65.10
19039;DHT22;9652;49.014;12.052;2024-03-02T13:22:36;17.90;64.70
19039;DHT22;9652;49.014;12.052;2024-03-02T13:25:04;18.00;64.50
19039;DHT22;9652;49.014;12.052;2024-03-02T13:27:34;18.00;64.00
19039;DHT22;9652;49.014;12.052;2024-03-02T13:30:02;18.00;63.60
19039;DHT22;9652;49.014;12.052;2024-03-02T13:32:32;17.90;63.30
19039;DHT22;9652;49.014;12.052;2024-03-02T13:34:59;17.80;63.00
19039;DHT22;9652;49.014;12.052;2024-03-02T13:37:28;17.80;63.10
19039;DHT22;9652;49.014;12.052;2024-03-02T13:39:55;17.70;62.90
19039;DHT22;9652;49.014;12.052;2024-03-02T13:42:22;17.60;62.60
19039;DHT22;9652;49.014;12.052;2024-03-02T13:44:50;17.50;62.20
19039;DHT22;9652;49.014;12.052;2024-03-02T13:47:18;17.40;62.20
19039;DHT22;9652;49.014;12.052;2024-03-02T13:49:48;17.30;62.40
19039;DHT22;9652;49.014;12.052;2024-03-02T13:52:15;17.20;63.40
19039;DHT22;9652;49.014;12.052;2024-03-02T13:54:44;17.10;63.20
19039;DHT22;9652;49.014;12.052;2024-03-02T13:57:11;17.00;63.70
19039;DHT22;9652;49.014;12.052;2024-03-02T13:59:39;17.00;63.90
19039;DHT22;9652;49.014;12.052;2024-03-02T14:02:08;17.10;63.80
19039;DHT22;9652;49.014;12.052;2024-03-02T14:04:36;17.00;63.40
19039;DHT22;9652;49.014;12.052;2024-03-02T14:07:05;17.00;63.10
19039;DHT22;9652;49.014;12.052;2024-03-02T14:09:33;16.90;62.70
19039;DHT22;9652;49.014;12.052;2024-03-02T14:12:00;16.90;62.70
19039;DHT22;9652;49.014;12.052;2024-03-02T14:14:28;16.80;62.70
19039;DHT22;9652;49.014;12.052;2024-03-02T14:16:56;16.70;62.60
19039;DHT22;9652;49.014;12.052;2024-03-02T14:19:26;16.60;62.50
19039;DHT22;9652;49.014;12.052;2024-03-02T14:21:53;16.50;62.60
19039;DHT22;9652;49.014;12.052;2024-03-02T14:24:22;16.40;62.80
19039;DHT22;9652;49.014;12.052;2024-03-02T14:26:51;16.30;63.00
19039;DHT22;9652;49.014;12.052;2024-03-02T14:29:18;16.30;63.20
19039;DHT22;9652;49.014;12.052;2024-03-02T14:31:45;16.20;63.50
19039;DHT22;9652;49.014;12.052;2024-03-02T14:34:14;16.20;63.80
19039;DHT22;9652;49.014;12.052;2024-03-02T14:36:41;16.10;64.10
19039;DHT22;9652;49.014;12.052;2024-03-02T14:39:09;16.10;64.40
19039;DHT22;9652;49.014;12.052;2024-03-02T14:41:38;16.10;64.80
19039;DHT22;9652;49.014;12.052;2024-03-02T14:44:05;16.20;65.10
19039;DHT22;9652;49.014;12.052;2024-03-02T14:46:32;16.20;65.50
19039;DHT22;9652;49.014;12.052;2024-03-02T14:48:59;16.30;65.70
19039;DHT22;9652;49.014;12.052;2024-03-02T14:51:26;16.30;65.60
19039;DHT22;9652;49.014;12.052;2024-03-02T14:53:55;16.40;65.50
19039;DHT22;9652;49.014;12.052;2024-03-02T14:56:23;16.50;65.30
19039;DHT22;9652;49.014;12.052;2024-03-02T14:58:51;16.50;65.00
19039;DHT22;9652;49.014;12.052;2024-03-02T15:01:19;16.60;64.90
19039;DHT22;9652;49.014;12.052;2024-03-02T15:03:48;16.60;64.90
19039;DHT22;9652;49.014;12.052;2024-03-02T15:06:15;16.60;64.70
19039;DHT22;9652;49.014;12.052;2024-03-02T15:08:42;16.60;64.60
19039;DHT22;9652;49.014;12.052;2024-03-02T15:11:11;16.70;64.50
19039;DHT22;9652;49.014;12.052;2024-03-02T15:13:39;16.70;64.50
19039;DHT22;9652;49.014;12.052;2024-03-02T15:16:07;16.70;64.40
19039;DHT22;9652;49.014;12.052;2024-03-02T15:18:35;16.70;64.20
19039;DHT22;9652;49.014;12.052;2024-03-02T15:21:02;16.70;64.10
19039;DHT22;9652;49.014;12.052;2024-03-02T15:23:29;16.70;64.00
19039;DHT22;9652;49.014;12.052;2024-03-02T15:25:56;16.70;63.80
19039;DHT22;9652;49.014;12.052;2024-03-02T15:28:23;16.70;63.80
19039;DHT22;9652;49.014;12.052;2024-03-02T15:30:51;16.70;63.70
19039;DHT22;9652;49.014;12.052;2024-03-02T15:33:19;16.70;63.50
19039;DHT22;9652;49.014;12.052;2024-03-02T15:35:46;16.60;63.20
19039;DHT22;9652;49.014;12.052;2024-03-02T15:38:13;16.60;63.20